sensor_id;sensor_type;location;lat;lon;timestamp;temperature;humidity
3136;DHT22;1578;47.658;9.922;2022-10-22T00:01:58;13.80;93.80
3136;DHT22;1578;47.658;9.922;2022-10-22T00:04:24;13.70;94.30
3136;DHT22;1578;47.658;9.922;2022-10-22T09:11:53;13.50;99.90
3136;DHT22;1578;47.658;9.922;2022-10-22T09:14:22;13.60;99.90
3136;DHT22;1578;47.658;9.922;2022-10-22T09:25:22;14.60;99.90
3136;DHT22;1578;47.658;9.922;2022-10-22T09:27:49;14.80;99.90
3136;DHT22;1578;47.658;9.922;2022-10-22T09:30:21;15.00;99.90
3136;DHT22;1578;47.658;9.922;2022-10-22T09:32:50;15.10;98.40
3136;DHT22;1578;47.658;9.922;2022-10-22T09:35:21;15.30;97.70
3136;DHT22;1578;47.658;9.922;2022-10-22T09:37:54;15.30;96.70
3136;DHT22;1578;47.658;9.922;2022-10-22T09:40:20;15.50;94.30
3136;DHT22;1578;47.658;9.922;2022-10-22T09:42:46;15.70;92.20
3136;DHT22;1578;47.658;9.922;2022-10-22T09:45:20;15.80;91.30
3136;DHT22;1578;47.658;9.922;2022-10-22T09:47:47;16.00;92.20
3136;DHT22;1578;47.658;9.922;2022-10-22T09:50:36;16.10;91.40
3136;DHT22;1578;47.658;9.922;2022-10-22T09:53:25;16.10;91.50
3136;DHT22;1578;47.658;9.922;2022-10-22T09:55:56;16.20;91.60
3136;DHT22;1578;47.658;9.922;2022-10-22T09:58:23;16.30;92.60
3136;DHT22;1578;47.658;9.922;2022-10-22T10:00:57;16.60;83.20
3136;DHT22;1578;47.658;9.922;2022-10-22T10:03:28;16.70;80.60
3136;DHT22;1578;47.658;9.922;2022-10-22T10:05:59;16.80;82.90
3136;DHT22;1578;47.658;9.922;2022-10-22T10:08:25;16.80;82.60
3136;DHT22;1578;47.658;9.922;2022-10-22T10:14:10;16.70;90.40
3136;DHT22;1578;47.658;9.922;2022-10-22T10:16:57;16.80;92.20
3136;DHT22;1578;47.658;9.922;2022-10-22T10:19:55;16.90;88.10
3136;DHT22;1578;47.658;9.922;2022-10-22T10:23:07;17.10;90.20
3136;DHT22;1578;47.658;9.922;2022-10-22T10:25:41;17.20;82.60
3136;DHT22;1578;47.658;9.922;2022-10-22T10:28:20;17.40;88.30
3136;DHT22;1578;47.658;9.922;2022-10-22T10:31:09;17.60;85.60
3136;DHT22;1578;47.658;9.922;2022-10-22T10:37:03;17.90;74.40
3136;DHT22;1578;47.658;9.922;2022-10-22T10:40:03;18.20;76.00
3136;DHT22;1578;47.658;9.922;2022-10-22T10:42:52;18.40;83.20
3136;DHT22;1578;47.658;9.922;2022-10-22T10:54:12;18.70;76.60
3136;DHT22;1578;47.658;9.922;2022-10-22T10:56:51;18.70;50.40
3136;DHT22;1578;47.658;9.922;2022-10-22T11:02:45;18.20;44.40
3136;DHT22;1578;47.658;9.922;2022-10-22T11:07:47;18.10;44.80
3136;DHT22;1578;47.658;9.922;2022-10-22T11:12:59;17.70;47.50
3136;DHT22;1578;47.658;9.922;2022-10-22T11:15:36;17.70;52.00
3136;DHT22;1578;47.658;9.922;2022-10-22T11:20:49;18.40;48.50
3136;DHT22;1578;47.658;9.922;2022-10-22T11:23:29;18.80;42.80
3136;DHT22;1578;47.658;9.922;2022-10-22T11:25:58;18.80;41.20
3136;DHT22;1578;47.658;9.922;2022-10-22T11:28:28;18.90;45.60
3136;DHT22;1578;47.658;9.922;2022-10-22T11:31:02;18.90;40.20
3136;DHT22;1578;47.658;9.922;2022-10-22T11:33:38;19.20;37.30
3136;DHT22;1578;47.658;9.922;2022-10-22T11:36:06;18.70;35.00
3136;DHT22;1578;47.658;9.922;2022-10-22T11:38:32;18.80;33.60
3136;DHT22;1578;47.658;9.922;2022-10-22T11:41:04;20.00;42.60
3136;DHT22;1578;47.658;9.922;2022-10-22T11:43:31;20.10;32.50
3136;DHT22;1578;47.658;9.922;2022-10-22T11:48:39;19.80;33.70
3136;DHT22;1578;47.658;9.922;2022-10-22T11:51:35;20.90;28.90
3136;DHT22;1578;47.658;9.922;2022-10-22T11:54:37;21.20;22.90
3136;DHT22;1578;47.658;9.922;2022-10-22T12:02:42;20.10;27.80
3136;DHT22;1578;47.658;9.922;2022-10-22T12:10:33;20.00;24.40
3136;DHT22;1578;47.658;9.922;2022-10-22T12:13:17;20.00;30.10
3136;DHT22;1578;47.658;9.922;2022-10-22T12:15:50;19.80;29.50
3136;DHT22;1578;47.658;9.922;2022-10-22T12:18:17;19.50;27.10
3136;DHT22;1578;47.658;9.922;2022-10-22T12:20:42;19.20;30.50
3136;DHT22;1578;47.658;9.922;2022-10-22T12:23:10;19.20;38.30
3136;DHT22;1578;47.658;9.922;2022-10-22T12:25:37;19.10;31.10
3136;DHT22;1578;47.658;9.922;2022-10-22T12:28:04;19.10;36.90
3136;DHT22;1578;47.658;9.922;2022-10-22T12:30:35;18.90;30.20
3136;DHT22;1578;47.658;9.922;2022-10-22T12:33:07;18.70;40.60
3136;DHT22;1578;47.658;9.922;2022-10-22T12:35:42;18.60;32.60
3136;DHT22;1578;47.658;9.922;2022-10-22T12:38:13;18.50;38.90
3136;DHT22;1578;47.658;9.922;2022-10-22T12:40:40;18.40;35.50
3136;DHT22;1578;47.658;9.922;2022-10-22T12:43:26;18.40;39.30
3136;DHT22;1578;47.658;9.922;2022-10-22T12:45:53;18.50;40.60
3136;DHT22;1578;47.658;9.922;2022-10-22T12:48:21;18.50;30.00
3136;DHT22;1578;47.658;9.922;2022-10-22T12:50:52;18.40;44.60
3136;DHT22;1578;47.658;9.922;2022-10-22T12:53:37;18.40;34.00
3136;DHT22;1578;47.658;9.922;2022-10-22T12:56:11;18.30;39.00
3136;DHT22;1578;47.658;9.922;2022-10-22T12:58:41;18.50;37.30
3136;DHT22;1578;47.658;9.922;2022-10-22T13:01:10;18.60;38.10
3136;DHT22;1578;47.658;9.922;2022-10-22T13:03:42;18.70;47.10
3136;DHT22;1578;47.658;9.922;2022-10-22T13:09:06;19.00;42.10
3136;DHT22;1578;47.658;9.922;2022-10-22T13:11:37;19.10;32.40
3136;DHT22;1578;47.658;9.922;2022-10-22T13:14:05;19.20;38.30
3136;DHT22;1578;47.658;9.922;2022-10-22T13:16:31;19.10;35.90
3136;DHT22;1578;47.658;9.922;2022-10-22T13:18:57;19.10;44.00
3136;DHT22;1578;47.658;9.922;2022-10-22T13:21:32;19.20;39.70
3136;DHT22;1578;47.658;9.922;2022-10-22T13:24:00;19.20;40.50
3136;DHT22;1578;47.658;9.922;2022-10-22T13:26:35;19.20;40.40
3136;DHT22;1578;47.658;9.922;2022-10-22T13:29:08;19.30;40.80
3136;DHT22;1578;47.658;9.922;2022-10-22T13:31:34;19.30;42.30
3136;DHT22;1578;47.658;9.922;2022-10-22T13:34:04;19.30;38.10
3136;DHT22;1578;47.658;9.922;2022-10-22T13:36:34;19.40;45.50
3136;DHT22;1578;47.658;9.922;2022-10-22T13:39:00;19.40;42.00
3136;DHT22;1578;47.658;9.922;2022-10-22T13:41:28;19.40;32.90
3136;DHT22;1578;47.658;9.922;2022-10-22T13:43:57;19.30;38.20
3136;DHT22;1578;47.658;9.922;2022-10-22T13:46:24;19.40;42.00
3136;DHT22;1578;47.658;9.922;2022-10-22T13:48:53;19.40;40.20
3136;DHT22;1578;47.658;9.922;2022-10-22T13:51:24;19.20;31.50
3136;DHT22;1578;47.658;9.922;2022-10-22T13:53:52;19.40;33.80
3136;DHT22;1578;47.658;9.922;2022-10-22T13:56:20;19.40;40.50
3136;DHT22;1578;47.658;9.922;2022-10-22T13:58:46;19.40;41.80
3136;DHT22;1578;47.658;9.922;2022-10-22T14:01:23;19.50;43.50
3136;DHT22;1578;47.658;9.922;2022-10-22T14:03:55;19.50;41.20
3136;DHT22;1578;47.658;9.922;2022-10-22T14:06:23;19.50;43.00
3136;DHT22;1578;47.658;9.922;2022-10-22T14:08:54;19.60;42.80
3136;DHT22;1578;47.658;9.922;2022-10-22T14:11:21;19.40;43.70
3136;DHT22;1578;47.658;9.922;2022-10-22T14:13:46;19.40;40.70
3136;DHT22;1578;47.658;9.922;2022-10-22T14:16:17;19.50;42.80
3136;DHT22;1578;47.658;9.922;2022-10-22T14:18:43;19.50;43.10
3136;DHT22;1578;47.658;9.922;2022-10-22T14:21:10;19.50;43.30
3136;DHT22;1578;47.658;9.922;2022-10-22T14:23:39;19.50;42.30
3136;DHT22;1578;47.658;9.922;2022-10-22T14:26:05;19.40;43.20
3136;DHT22;1578;47.658;9.922;2022-10-22T14:28:32;19.30;42.70
3136;DHT22;1578;47.658;9.922;2022-10-22T14:30:58;19.30;42.00
3136;DHT22;1578;47.658;9.922;2022-10-22T14:33:27;19.10;43.30
3136;DHT22;1578;47.658;9.922;2022-10-22T14:35:54;19.10;43.80
3136;DHT22;1578;47.658;9.922;2022-10-22T14:38:19;19.00;43.10
3136;DHT22;1578;47.658;9.922;2022-10-22T14:40:45;18.90;45.10
3136;DHT22;1578;47.658;9.922;2022-10-22T14:43:28;18.80;43.90
3136;DHT22;1578;47.658;9.922;2022-10-22T14:45:56;18.50;44.90
3136;DHT22;1578;47.658;9.922;2022-10-22T14:48:22;18.40;45.60
3136;DHT22;1578;47.658;9.922;2022-10-22T14:50:47;18.30;47.70
3136;DHT22;1578;47.658;9.922;2022-10-22T14:53:14;18.10;47.90
3136;DHT22;1578;47.658;9.922;2022-10-22T14:55:41;18.00;48.60
3136;DHT22;1578;47.658;9.922;2022-10-22T14:58:09;17.80;49.00
3136;DHT22;1578;47.658;9.922;2022-10-22T15:00:35;17.70;49.70
3136;DHT22;1578;47.658;9.922;2022-10-22T15:03:02;17.60;51.30
3136;DHT22;1578;47.658;9.922;2022-10-22T15:05:28;17.50;51.50
3136;DHT22;1578;47.658;9.922;2022-10-22T15:07:53;17.30;53.30
3136;DHT22;1578;47.658;9.922;2022-10-22T15:10:19;17.20;53.80
3136;DHT22;1578;47.658;9.922;2022-10-22T15:12:45;17.10;54.10
3136;DHT22;1578;47.658;9.922;2022-10-22T15:15:10;17.00;54.10
3136;DHT22;1578;47.658;9.922;2022-10-22T15:17:36;16.80;54.50
3136;DHT22;1578;47.658;9.922;2022-10-22T15:20:03;16.70;55.90
3136;DHT22;1578;47.658;9.922;2022-10-22T15:22:31;16.60;56.20
3136;DHT22;1578;47.658;9.922;2022-10-22T15:25:04;16.50;56.70
3136;DHT22;1578;47.658;9.922;2022-10-22T15:27:30;16.40;57.00
3136;DHT22;1578;47.658;9.922;2022-10-22T15:29:55;16.30;57.90
3136;DHT22;1578;47.658;9.922;2022-10-22T15:32:27;16.20;58.80
3136;DHT22;1578;47.658;9.922;2022-10-22T15:34:54;16.10;60.80
3136;DHT22;1578;47.658;9.922;2022-10-22T15:37:21;15.90;62.60
3136;DHT22;1578;47.658;9.922;2022-10-22T15:39:46;15.80;64.90
3136;DHT22;1578;47.658;9.922;2022-10-22T15:42:12;15.70;62.60
3136;DHT22;1578;47.658;9.922;2022-10-22T15:44:43;15.60;62.30
3136;DHT22;1578;47.658;9.922;2022-10-22T15:47:09;15.50;63.60
3136;DHT22;1578;47.658;9.922;2022-10-22T15:49:36;15.40;64.00
3136;DHT22;1578;47.658;9.922;2022-10-22T15:52:03;15.30;65.40
3136;DHT22;1578;47.658;9.922;2022-10-22T15:54:30;15.20;64.10
3136;DHT22;1578;47.658;9.922;2022-10-22T15:56:57;15.10;65.90
3136;DHT22;1578;47.658;9.922;2022-10-22T15:59:23;15.00;65.30
3136;DHT22;1578;47.658;9.922;2022-10-22T16:01:49;14.90;65.10
3136;DHT22;1578;47.658;9.922;2022-10-22T16:04:15;14.80;67.30
3136;DHT22;1578;47.658;9.922;2022-10-22T16:06:52;14.70;67.70
3136;DHT22;1578;47.658;9.922;2022-10-22T16:09:20;14.50;69.40
3136;DHT22;1578;47.658;9.922;2022-10-22T16:11:47;14.50;68.90
3136;DHT22;1578;47.658;9.922;2022-10-22T16:14:14;14.40;69.30
3136;DHT22;1578;47.658;9.922;2022-10-22T16:16:48;14.30;70.70
3136;DHT22;1578;47.658;9.922;2022-10-22T16:19:16;14.20;71.80
3136;DHT22;1578;47.658;9.922;2022-10-22T16:21:42;14.10;72.40
3136;DHT22;1578;47.658;9.922;2022-10-22T16:24:10;14.00;72.80
3136;DHT22;1578;47.658;9.922;2022-10-22T16:26:36;13.90;72.70
3136;DHT22;1578;47.658;9.922;2022-10-22T16:29:02;13.90;72.50
3136;DHT22;1578;47.658;9.922;2022-10-22T16:31:28;13.90;71.90
3136;DHT22;1578;47.658;9.922;2022-10-22T16:33:54;13.80;72.00
3136;DHT22;1578;47.658;9.922;2022-10-22T16:36:20;13.60;75.10
3136;DHT22;1578;47.658;9.922;2022-10-22T16:38:47;13.50;74.10
3136;DHT22;1578;47.658;9.922;2022-10-22T16:41:23;13.40;74.50
3136;DHT22;1578;47.658;9.922;2022-10-22T16:43:50;13.40;75.60
3136;DHT22;1578;47.658;9.922;2022-10-22T16:46:20;13.20;77.40
3136;DHT22;1578;47.658;9.922;2022-10-22T16:48:51;13.00;79.60
3136;DHT22;1578;47.658;9.922;2022-10-22T16:51:20;12.90;80.90
3136;DHT22;1578;47.658;9.922;2022-10-22T16:53:45;12.80;82.70
3136;DHT22;1578;47.658;9.922;2022-10-22T16:56:13;12.70;82.80
3136;DHT22;1578;47.658;9.922;2022-10-22T16:58:44;12.70;82.30
3136;DHT22;1578;47.658;9.922;2022-10-22T17:01:09;12.60;81.90
3136;DHT22;1578;47.658;9.922;2022-10-22T17:03:35;12.50;81.80
3136;DHT22;1578;47.658;9.922;2022-10-22T17:06:01;12.50;81.10
3136;DHT22;1578;47.658;9.922;2022-10-22T17:08:29;12.50;80.20
3136;DHT22;1578;47.658;9.922;2022-10-22T17:10:55;12.50;77.90
3136;DHT22;1578;47.658;9.922;2022-10-22T17:13:20;12.30;79.00
3136;DHT22;1578;47.658;9.922;2022-10-22T17:15:46;12.20;80.80
3136;DHT22;1578;47.658;9.922;2022-10-22T17:18:12;12.10;82.00
3136;DHT22;1578;47.658;9.922;2022-10-22T17:20:41;12.00;82.60
3136;DHT22;1578;47.658;9.922;2022-10-22T17:23:08;11.90;84.60
3136;DHT22;1578;47.658;9.922;2022-10-22T17:25:35;11.90;84.50
3136;DHT22;1578;47.658;9.922;2022-10-22T17:28:01;11.80;85.40
3136;DHT22;1578;47.658;9.922;2022-10-22T17:30:26;11.70;86.80
3136;DHT22;1578;47.658;9.922;2022-10-22T17:32:53;11.60;86.20
3136;DHT22;1578;47.658;9.922;2022-10-22T17:35:19;11.60;85.40
3136;DHT22;1578;47.658;9.922;2022-10-22T17:37:44;11.60;85.20
3136;DHT22;1578;47.658;9.922;2022-10-22T17:40:12;11.50;86.30
3136;DHT22;1578;47.658;9.922;2022-10-22T17:42:38;11.50;86.10
3136;DHT22;1578;47.658;9.922;2022-10-22T17:45:04;11.50;86.70
3136;DHT22;1578;47.658;9.922;2022-10-22T17:47:29;11.30;86.70
3136;DHT22;1578;47.658;9.922;2022-10-22T17:49:55;11.20;87.40
3136;DHT22;1578;47.658;9.922;2022-10-22T17:52:21;11.20;87.30
3136;DHT22;1578;47.658;9.922;2022-10-22T17:54:47;11.10;87.20
3136;DHT22;1578;47.658;9.922;2022-10-22T17:57:15;11.00;87.40
3136;DHT22;1578;47.658;9.922;2022-10-22T17:59:40;11.10;87.80
3136;DHT22;1578;47.658;9.922;2022-10-22T18:02:10;11.00;87.00
3136;DHT22;1578;47.658;9.922;2022-10-22T18:04:38;11.10;87.00
3136;DHT22;1578;47.658;9.922;2022-10-22T18:07:04;11.10;86.40
3136;DHT22;1578;47.658;9.922;2022-10-22T18:09:29;11.10;87.30
3136;DHT22;1578;47.658;9.922;2022-10-22T18:11:55;10.90;86.80
3136;DHT22;1578;47.658;9.922;2022-10-22T18:14:21;10.90;87.30
3136;DHT22;1578;47.658;9.922;2022-10-22T18:16:48;10.90;88.90
3136;DHT22;1578;47.658;9.922;2022-10-22T18:19:19;10.80;89.20
3136;DHT22;1578;47.658;9.922;2022-10-22T18:21:46;10.80;90.20
3136;DHT22;1578;47.658;9.922;2022-10-22T18:24:13;10.70;90.90
3136;DHT22;1578;47.658;9.922;2022-10-22T18:26:40;10.60;91.70
3136;DHT22;1578;47.658;9.922;2022-10-22T18:29:06;10.70;92.40
3136;DHT22;1578;47.658;9.922;2022-10-22T18:31:31;10.70;92.00
3136;DHT22;1578;47.658;9.922;2022-10-22T18:33:58;10.60;92.20
3136;DHT22;1578;47.658;9.922;2022-10-22T18:36:25;10.50;91.80
3136;DHT22;1578;47.658;9.922;2022-10-22T18:38:57;10.40;91.30
3136;DHT22;1578;47.658;9.922;2022-10-22T18:41:23;10.40;90.90
3136;DHT22;1578;47.658;9.922;2022-10-22T18:43:53;10.40;91.40
3136;DHT22;1578;47.658;9.922;2022-10-22T18:46:20;10.30;91.60
3136;DHT22;1578;47.658;9.922;2022-10-22T18:48:46;10.20;93.00
3136;DHT22;1578;47.658;9.922;2022-10-22T18:51:13;10.20;94.00
3136;DHT22;1578;47.658;9.922;2022-10-22T18:53:40;10.30;94.40
3136;DHT22;1578;47.658;9.922;2022-10-22T18:56:10;10.30;94.20
3136;DHT22;1578;47.658;9.922;2022-10-22T18:58:40;10.30;94.80
3136;DHT22;1578;47.658;9.922;2022-10-22T19:03:33;10.30;95.20
3136;DHT22;1578;47.658;9.922;2022-10-22T19:05:58;10.40;94.70
3136;DHT22;1578;47.658;9.922;2022-10-22T19:08:24;10.30;94.00
3136;DHT22;1578;47.658;9.922;2022-10-22T19:10:50;10.30;94.10
3136;DHT22;1578;47.658;9.922;2022-10-22T19:13:17;10.30;94.00
3136;DHT22;1578;47.658;9.922;2022-10-22T19:15:43;10.30;93.90
3136;DHT22;1578;47.658;9.922;2022-10-22T19:18:09;10.30;94.20
3136;DHT22;1578;47.658;9.922;2022-10-22T19:20:35;10.40;93.80
3136;DHT22;1578;47.658;9.922;2022-10-22T19:23:02;10.40;93.90
3136;DHT22;1578;47.658;9.922;2022-10-22T19:25:27;10.40;94.10
3136;DHT22;1578;47.658;9.922;2022-10-22T19:27:53;10.50;94.10
3136;DHT22;1578;47.658;9.922;2022-10-22T19:30:19;10.50;94.10
3136;DHT22;1578;47.658;9.922;2022-10-22T19:32:45;10.60;94.20
3136;DHT22;1578;47.658;9.922;2022-10-22T19:35:12;10.60;94.60
3136;DHT22;1578;47.658;9.922;2022-10-22T19:37:37;10.50;94.30
3136;DHT22;1578;47.658;9.922;2022-10-22T19:40:06;10.60;94.40
3136;DHT22;1578;47.658;9.922;2022-10-22T19:42:32;10.60;93.70
3136;DHT22;1578;47.658;9.922;2022-10-22T19:44:57;10.60;93.10
3136;DHT22;1578;47.658;9.922;2022-10-22T19:47:23;10.40;92.90
3136;DHT22;1578;47.658;9.922;2022-10-22T19:49:49;10.30;93.00
3136;DHT22;1578;47.658;9.922;2022-10-22T19:52:15;10.30;93.60
3136;DHT22;1578;47.658;9.922;2022-10-22T19:54:40;10.20;94.00
3136;DHT22;1578;47.658;9.922;2022-10-22T19:57:13;10.20;94.40
3136;DHT22;1578;47.658;9.922;2022-10-22T19:59:39;10.20;94.20
3136;DHT22;1578;47.658;9.922;2022-10-22T20:02:05;10.20;94.30
3136;DHT22;1578;47.658;9.922;2022-10-22T20:04:31;10.20;94.60
3136;DHT22;1578;47.658;9.922;2022-10-22T20:06:57;10.10;94.40
3136;DHT22;1578;47.658;9.922;2022-10-22T20:09:23;10.30;94.80
3136;DHT22;1578;47.658;9.922;2022-10-22T20:11:49;10.30;94.00
3136;DHT22;1578;47.658;9.922;2022-10-22T20:14:14;10.30;94.10
3136;DHT22;1578;47.658;9.922;2022-10-22T20:16:40;10.30;93.70
3136;DHT22;1578;47.658;9.922;2022-10-22T20:19:06;10.20;93.00
3136;DHT22;1578;47.658;9.922;2022-10-22T20:21:33;10.20;92.50
3136;DHT22;1578;47.658;9.922;2022-10-22T20:23:59;10.20;92.80
3136;DHT22;1578;47.658;9.922;2022-10-22T20:26:26;10.10;92.80
3136;DHT22;1578;47.658;9.922;2022-10-22T20:28:54;10.20;93.00
3136;DHT22;1578;47.658;9.922;2022-10-22T20:31:22;10.10;92.80
3136;DHT22;1578;47.658;9.922;2022-10-22T20:33:49;10.10;93.40
3136;DHT22;1578;47.658;9.922;2022-10-22T20:36:18;10.10;93.40
3136;DHT22;1578;47.658;9.922;2022-10-22T20:38:44;10.00;92.70
3136;DHT22;1578;47.658;9.922;2022-10-22T20:41:15;10.10;91.90
3136;DHT22;1578;47.658;9.922;2022-10-22T20:43:45;10.00;91.80
3136;DHT22;1578;47.658;9.922;2022-10-22T20:46:31;9.90;92.10
3136;DHT22;1578;47.658;9.922;2022-10-22T20:49:23;9.90;92.10
3136;DHT22;1578;47.658;9.922;2022-10-22T20:51:48;9.80;92.70
3136;DHT22;1578;47.658;9.922;2022-10-22T20:54:14;9.90;93.30
3136;DHT22;1578;47.658;9.922;2022-10-22T20:56:41;9.80;93.60
3136;DHT22;1578;47.658;9.922;2022-10-22T20:59:07;9.80;94.00
3136;DHT22;1578;47.658;9.922;2022-10-22T21:01:52;9.70;93.90
3136;DHT22;1578;47.658;9.922;2022-10-22T21:04:20;9.70;94.70
3136;DHT22;1578;47.658;9.922;2022-10-22T21:06:46;9.70;95.00
3136;DHT22;1578;47.658;9.922;2022-10-22T21:09:13;9.60;94.80
3136;DHT22;1578;47.658;9.922;2022-10-22T21:11:40;9.70;94.60
3136;DHT22;1578;47.658;9.922;2022-10-22T21:14:08;9.70;94.10
3136;DHT22;1578;47.658;9.922;2022-10-22T21:16:34;9.70;93.70
3136;DHT22;1578;47.658;9.922;2022-10-22T21:19:00;9.60;93.00
3136;DHT22;1578;47.658;9.922;2022-10-22T21:21:26;9.60;93.30
3136;DHT22;1578;47.658;9.922;2022-10-22T21:23:52;9.70;92.60
3136;DHT22;1578;47.658;9.922;2022-10-22T21:26:19;9.60;92.00
3136;DHT22;1578;47.658;9.922;2022-10-22T21:28:45;9.60;92.50
3136;DHT22;1578;47.658;9.922;2022-10-22T21:31:12;9.60;92.30
3136;DHT22;1578;47.658;9.922;2022-10-22T21:33:43;9.50;92.70
3136;DHT22;1578;47.658;9.922;2022-10-22T21:36:09;9.50;92.70
3136;DHT22;1578;47.658;9.922;2022-10-22T21:38:35;9.50;92.10
3136;DHT22;1578;47.658;9.922;2022-10-22T21:41:06;9.40;91.80
3136;DHT22;1578;47.658;9.922;2022-10-22T21:43:32;9.40;91.70
3136;DHT22;1578;47.658;9.922;2022-10-22T21:46:09;9.30;91.60
3136;DHT22;1578;47.658;9.922;2022-10-22T21:48:36;9.30;92.00
3136;DHT22;1578;47.658;9.922;2022-10-22T21:51:07;9.40;92.30
3136;DHT22;1578;47.658;9.922;2022-10-22T21:53:33;9.30;91.30
3136;DHT22;1578;47.658;9.922;2022-10-22T21:55:59;9.30;92.20
3136;DHT22;1578;47.658;9.922;2022-10-22T21:58:24;9.40;92.10
3136;DHT22;1578;47.658;9.922;2022-10-22T22:00:54;9.40;92.40
3136;DHT22;1578;47.658;9.922;2022-10-22T22:03:20;9.50;93.20
3136;DHT22;1578;47.658;9.922;2022-10-22T22:05:45;9.50;93.90
3136;DHT22;1578;47.658;9.922;2022-10-22T22:08:11;9.50;94.00
3136;DHT22;1578;47.658;9.922;2022-10-22T22:10:37;9.50;94.10
3136;DHT22;1578;47.658;9.922;2022-10-22T22:13:03;9.50;94.00
3136;DHT22;1578;47.658;9.922;2022-10-22T22:15:29;9.50;94.20
3136;DHT22;1578;47.658;9.922;2022-10-22T22:17:56;9.40;94.10
3136;DHT22;1578;47.658;9.922;2022-10-22T22:20:22;9.30;94.10
3136;DHT22;1578;47.658;9.922;2022-10-22T22:22:47;9.30;94.40
3136;DHT22;1578;47.658;9.922;2022-10-22T22:25:13;9.40;94.80
3136;DHT22;1578;47.658;9.922;2022-10-22T22:27:39;9.40;94.90
3136;DHT22;1578;47.658;9.922;2022-10-22T22:30:05;9.40;94.80
3136;DHT22;1578;47.658;9.922;2022-10-22T22:32:31;9.30;94.20
3136;DHT22;1578;47.658;9.922;2022-10-22T22:34:57;9.30;94.70
3136;DHT22;1578;47.658;9.922;2022-10-22T22:37:22;9.30;94.30
3136;DHT22;1578;47.658;9.922;2022-10-22T22:39:48;9.30;94.60
3136;DHT22;1578;47.658;9.922;2022-10-22T22:42:13;9.30;94.50
3136;DHT22;1578;47.658;9.922;2022-10-22T22:44:39;9.30;94.10
3136;DHT22;1578;47.658;9.922;2022-10-22T22:47:05;9.20;94.30
3136;DHT22;1578;47.658;9.922;2022-10-22T22:49:30;9.30;94.50
3136;DHT22;1578;47.658;9.922;2022-10-22T22:51:56;9.20;93.50
3136;DHT22;1578;47.658;9.922;2022-10-22T22:54:21;9.20;93.50
3136;DHT22;1578;47.658;9.922;2022-10-22T22:56:49;9.00;93.10
3136;DHT22;1578;47.658;9.922;2022-10-22T22:59:15;9.10;94.60
3136;DHT22;1578;47.658;9.922;2022-10-22T23:01:40;9.20;94.50
3136;DHT22;1578;47.658;9.922;2022-10-22T23:04:10;9.20;93.90
3136;DHT22;1578;47.658;9.922;2022-10-22T23:06:37;9.20;94.10
3136;DHT22;1578;47.658;9.922;2022-10-22T23:09:04;9.20;94.00
3136;DHT22;1578;47.658;9.922;2022-10-22T23:11:30;9.10;94.00
3136;DHT22;1578;47.658;9.922;2022-10-22T23:13:58;9.00;93.90
3136;DHT22;1578;47.658;9.922;2022-10-22T23:16:27;9.00;94.00
3136;DHT22;1578;47.658;9.922;2022-10-22T23:18:54;8.90;94.00
3136;DHT22;1578;47.658;9.922;2022-10-22T23:21:26;8.90;93.40
3136;DHT22;1578;47.658;9.922;2022-10-22T23:23:54;8.90;93.20
3136;DHT22;1578;47.658;9.922;2022-10-22T23:26:23;8.80;93.40
3136;DHT22;1578;47.658;9.922;2022-10-22T23:28:49;8.60;93.80
3136;DHT22;1578;47.658;9.922;2022-10-22T23:31:16;8.50;93.50
3136;DHT22;1578;47.658;9.922;2022-10-22T23:33:42;8.40;94.10
3136;DHT22;1578;47.658;9.922;2022-10-22T23:36:09;8.40;94.30
3136;DHT22;1578;47.658;9.922;2022-10-22T23:38:36;8.40;94.60
3136;DHT22;1578;47.658;9.922;2022-10-22T23:41:02;8.40;94.40
3136;DHT22;1578;47.658;9.922;2022-10-22T23:43:28;8.40;94.40
3136;DHT22;1578;47.658;9.922;2022-10-22T23:45:53;8.40;94.50
3136;DHT22;1578;47.658;9.922;2022-10-22T23:48:19;8.40;94.50
3136;DHT22;1578;47.658;9.922;2022-10-22T23:50:46;8.40;94.40
3136;DHT22;1578;47.658;9.922;2022-10-22T23:53:11;8.30;94.10
3136;DHT22;1578;47.658;9.922;2022-10-22T23:55:42;8.30;94.00
3136;DHT22;1578;47.658;9.922;2022-10-22T23:58:08;8.30;94.10
